Pinewood (Sawmills), NC

6:39 AM EST on February 22, 2017 (GMT -0500)
Cedar Valley Rd | | Change Station

Elev 1227 ft 35.84 °N, 81.47 °W | Updated 8 seconds ago

Overcast
Overcast
50.2 °F
Feels Like 50.2 °F
N
0.0
Wind Variable Wind from NW
Gusts 0.0 mph

Today
High -- | Low -- °F
--% Chance of Precip.
Yesterday
High -- | Low -- °F
Precip. -- in
Pressure 29.99 in
Visibility 3.0 miles
Clouds Few 400 ft
Overcast 1400 ft
Dew Point 48 °F
Humidity 91%
Rainfall 0.09 in
Snow Depth Not available.
7:04 AM 6:14 PM
Waning Crescent, 18% visible
METAR KHKY 221053Z AUTO 00000KT 3SM BR FEW004 OVC014 10/09 A3002 RMK AO2 RAE17B36E51 SLP153 P0001 T01000094
Pressure 29.99 in
Visibility 3.0 miles
Clouds Few 400 ft
Overcast 1400 ft
Dew Point 48 °F
Humidity 91%
Rainfall 0.09 in
Snow Depth Not available.
7:04 AM 6:14 PM
Waning Crescent, 18% visible
METAR KHKY 221053Z AUTO 00000KT 3SM BR FEW004 OVC014 10/09 A3002 RMK AO2 RAE17B36E51 SLP153 P0001 T01000094

Get Your Daily Forecast Email!

Thanks for signing up!

Be on the lookout for a verification email in your inbox.

You'll start receiving the daily forecast at 8 AM.

×

10-Day Weather Forecast

Almanac

Astronomy

Feb. 22, 2017 Rise Set
Actual Time
Civil Twilight
Nautical Twilight
Astronomical Twilight
Moon
Length of Visible Light
Length of Day
Tomorrow will be .
, % of the Moon is Illuminated

Today's Extremes

State Highs State Lows

Community

WunderPhotos

Upload Photos

1,962,540 photos uploaded!

WunderBlog® & News

Nearby

Air Quality

  Air Quality AQ Index Pollutant
Not available.

Snow Depth

Station Depth Elevation

Earthquake Activity

City Distance Mag. Time & Date
Minimum magnitude displayed is 2.5.

Coastal Water Temperatures

Place Temperature

Stations

Nearby Weather Stations

Station Location Temp. Windchill Dew Point Humidity Wind Precip. Elev Updated Type
                   

Watches & Warnings

There are currently no watches in effect.